Impacts TAF Board INFO
FOR SITUATIONAL AWARENESS. NOT TO BE USED FOR FLIGHT PLANNING PURPOSES.
IDs:

KCLE - Cleveland/Hopkins In, OH, US

Issued at 0256 UTC 17 Aug 2018
Updated at 0524 UTC 17 Aug 2018
Potential Impact None Slight Moderate High
Time<<18/06Z 18/07Z 18/08Z 18/09Z 18/10Z 18/11Z 18/12Z 18/13Z 18/14Z 18/15Z 18/16Z 18/17Z 18/18Z
Type
VIS
CIG
Cover
FltCat
WX
WDir
WSpd
WGst

Raw TAF
KCLE 170256Z 1703/1806 20008KT P6SM VCSH BKN025 OVC035
  FM170900 21007KT P6SM OVC015
  TEMPO 1712/1716 3SM BR OVC008
  FM171600 23009KT P6SM VCSH BKN020
  FM172100 26008KT P6SM VCSH OVC050


METAR Board
Radar Display
Forecast Discussion

FOR SITUATIONAL AWARENESS. NOT TO BE USED FOR FLIGHT PLANNING PURPOSES.